Ana Sayfa
METAR-TAF:

METAR-TAF

Havaalanları :

Ingalls Field

Hot Springs, Virginia, Amerika Birleşik Devletleri

Enlem: 37-57N, Boylam: 079-50W, yükseklik: 1156 m

Güncel hava durumu gözlemi

Rapor saat 08:30 UTC de 31 dakika önce yapıldı.
Sakin rüzgar
Sıcaklık 19°C
Nem 94%
Basınç 1025 hPa
Görüş mesafesi: 16.1 km
Açık gökyüzü

METAR: KHSP 250830Z AUTO 00000KT 10SM CLR 19/18 A3027 RMK AO2 T01910181

Saat: 05:01 (09:01 UTC)


TAF: eksik

4.000'den fazla havaalanı için hava durumu gözlemleri ve tahminleri (METAR ve TAF raporları).

Kullanılabilir istasyonlar harita üzerinde sarı ve kırmızı noktalarla gösterilir.

İstasyonun adını görmek için fareyi noktanın üzerinde gezdirin.

Sonrasında hava gözlem ve tahminlerini görmek için tıklayın.

Haritayı değiştirmek için: yaklaştırmak için siyah artı işaretli yeşil düğmeye ve uzaklaştırmak için de eksi işaretli düğmeye hızla tıklayın; bitişik haritalar için yeşil okları kullanın.


METAR-TAF: